createdAt,value
2018-03-31T00:04:26.712Z,3.10
2018-03-31T00:09:28.866Z,3.03
2018-03-31T00:14:30.914Z,3.07
2018-03-31T00:19:32.941Z,2.80
2018-03-31T00:24:35.205Z,2.73
2018-03-31T00:29:38.134Z,2.20
2018-03-31T00:34:40.160Z,2.90
2018-03-31T00:39:42.189Z,2.63
2018-03-31T00:44:44.209Z,2.33
2018-03-31T00:49:46.256Z,2.60
2018-03-31T00:54:48.289Z,2.73
2018-03-31T00:59:50.348Z,3.23
2018-03-31T01:04:52.575Z,2.60
2018-03-31T01:09:54.661Z,2.10
2018-03-31T01:14:56.705Z,2.80
2018-03-31T01:19:58.776Z,3.00
2018-03-31T01:25:01.021Z,2.70
2018-03-31T01:30:03.830Z,2.53
2018-03-31T01:35:06.687Z,2.73
2018-03-31T01:40:08.749Z,2.47
2018-03-31T01:45:10.807Z,2.83
2018-03-31T01:50:12.874Z,3.43
2018-03-31T01:55:14.954Z,3.20
2018-03-31T02:00:17.039Z,2.10
2018-03-31T02:05:19.081Z,3.23
2018-03-31T02:10:21.250Z,2.50
2018-03-31T02:15:23.290Z,2.10
2018-03-31T02:20:26.316Z,2.70
2018-03-31T02:25:28.453Z,2.23
2018-03-31T02:30:30.504Z,2.40
2018-03-31T02:35:32.556Z,2.30
2018-03-31T02:40:34.629Z,2.47
2018-03-31T02:45:37.649Z,2.30
2018-03-31T02:50:39.723Z,2.87
2018-03-31T02:55:42.687Z,2.73
2018-03-31T03:00:44.976Z,3.07
2018-03-31T03:05:47.092Z,3.10
2018-03-31T03:10:49.883Z,2.53
2018-03-31T03:15:52.735Z,2.67
2018-03-31T03:20:54.848Z,3.13
2018-03-31T03:25:57.003Z,2.73
2018-03-31T03:30:59.068Z,2.93
2018-03-31T03:36:01.221Z,2.23
2018-03-31T03:41:04.233Z,3.23
2018-03-31T03:46:06.315Z,2.43
2018-03-31T03:51:09.146Z,2.43
2018-03-31T03:56:11.203Z,2.20
2018-03-31T04:01:13.365Z,2.80
2018-03-31T04:06:15.596Z,2.17
2018-03-31T04:11:17.670Z,2.60
2018-03-31T04:16:20.103Z,2.10
2018-03-31T04:21:22.464Z,2.50
2018-03-31T04:26:24.623Z,2.43
2018-03-31T04:31:26.900Z,2.00
2018-03-31T04:36:29.868Z,2.17
2018-03-31T04:41:31.896Z,2.30
2018-03-31T04:46:33.990Z,2.20
2018-03-31T04:51:36.196Z,2.67
2018-03-31T04:56:38.208Z,2.70
2018-03-31T05:01:40.246Z,2.67
2018-03-31T05:06:42.364Z,2.37
2018-03-31T05:11:44.722Z,2.30
2018-03-31T05:16:46.820Z,2.00
2018-03-31T05:21:48.948Z,1.90
2018-03-31T05:26:50.978Z,1.67
2018-03-31T05:31:53.248Z,2.27
2018-03-31T05:36:55.329Z,2.40
2018-03-31T05:41:57.362Z,1.83
2018-03-31T05:46:59.786Z,2.90
2018-03-31T05:52:02.074Z,2.70
2018-03-31T05:57:04.123Z,2.13
2018-03-31T06:02:06.240Z,2.57
2018-03-31T06:07:09.181Z,2.43
2018-03-31T06:12:11.217Z,2.10
2018-03-31T06:17:13.477Z,2.20
2018-03-31T06:22:15.562Z,2.00
2018-03-31T06:27:17.623Z,2.20
2018-03-31T06:32:19.698Z,1.70
2018-03-31T06:37:21.996Z,2.20
2018-03-31T06:42:24.026Z,1.87
2018-03-31T06:47:26.848Z,2.07
2018-03-31T06:52:28.896Z,1.83
2018-03-31T06:57:30.967Z,1.67
2018-03-31T07:02:33.112Z,1.67
2018-03-31T07:07:35.197Z,1.80
2018-03-31T07:12:37.272Z,1.73
2018-03-31T07:17:39.360Z,1.90
2018-03-31T07:22:42.270Z,1.83
2018-03-31T07:27:44.450Z,2.50
2018-03-31T07:32:46.705Z,3.20
2018-03-31T07:37:48.823Z,2.80
2018-03-31T07:42:50.953Z,2.50
2018-03-31T07:47:53.052Z,2.67
2018-03-31T07:52:55.923Z,2.90
2018-03-31T07:57:58.038Z,2.83
2018-03-31T08:03:00.125Z,2.77
2018-03-31T08:08:02.211Z,3.13
2018-03-31T08:13:04.368Z,2.50
2018-03-31T08:18:06.464Z,3.40
2018-03-31T08:23:08.550Z,2.50
2018-03-31T08:28:10.603Z,3.07
2018-03-31T08:33:12.721Z,2.80
2018-03-31T08:38:15.516Z,3.23
2018-03-31T08:43:18.320Z,3.73
2018-03-31T08:48:21.329Z,3.50
2018-03-31T08:53:23.378Z,3.50
2018-03-31T08:58:25.633Z,3.60
2018-03-31T09:03:27.686Z,2.50
2018-03-31T09:08:29.933Z,2.93
2018-03-31T09:13:31.985Z,3.77
2018-03-31T09:18:34.213Z,3.47
2018-03-31T09:23:36.527Z,3.10
2018-03-31T09:28:38.809Z,3.33
2018-03-31T09:33:41.807Z,2.70
2018-03-31T09:38:43.844Z,3.37
2018-03-31T09:43:45.982Z,3.57
2018-03-31T09:48:48.818Z,3.63
2018-03-31T09:53:50.850Z,3.20
2018-03-31T09:58:53.366Z,3.60
2018-03-31T10:03:56.161Z,4.47
2018-03-31T10:08:58.274Z,3.67
2018-03-31T10:14:00.335Z,3.60
2018-03-31T10:19:02.389Z,3.90
2018-03-31T10:24:04.428Z,4.13
2018-03-31T10:29:06.587Z,3.80
2018-03-31T10:34:08.730Z,4.00
2018-03-31T10:39:11.558Z,3.30
2018-03-31T10:44:14.560Z,3.60
2018-03-31T10:49:16.600Z,3.80
2018-03-31T10:54:18.672Z,4.10
2018-03-31T10:59:20.720Z,4.40
2018-03-31T11:04:22.909Z,3.47
2018-03-31T11:09:24.948Z,3.80
2018-03-31T11:14:27.009Z,3.40
2018-03-31T11:19:29.281Z,3.90
2018-03-31T11:24:31.391Z,4.20
2018-03-31T11:29:33.639Z,3.67
2018-03-31T11:34:35.677Z,4.20
2018-03-31T11:39:37.779Z,4.10
2018-03-31T11:44:39.904Z,3.80
2018-03-31T11:49:42.015Z,3.70
2018-03-31T11:54:44.083Z,3.63
2018-03-31T11:59:46.397Z,4.30
2018-03-31T12:04:48.458Z,4.03
2018-03-31T12:09:50.692Z,3.57
2018-03-31T12:14:53.690Z,4.00
2018-03-31T12:19:55.754Z,3.97
2018-03-31T12:24:59.744Z,4.20
2018-03-31T12:30:01.787Z,4.67
2018-03-31T12:35:03.838Z,4.27
2018-03-31T12:40:06.843Z,3.77
2018-03-31T12:45:09.883Z,4.87
2018-03-31T12:50:12.792Z,4.60
2018-03-31T12:55:14.863Z,3.83
2018-03-31T13:00:17.277Z,4.47
2018-03-31T13:05:19.318Z,4.43
2018-03-31T13:10:21.347Z,3.77
2018-03-31T13:15:23.404Z,4.50
2018-03-31T13:20:25.472Z,4.13
2018-03-31T13:25:27.678Z,4.17
2018-03-31T13:30:29.758Z,5.57
2018-03-31T13:35:32.768Z,4.60
2018-03-31T13:40:34.980Z,5.20
2018-03-31T13:45:37.051Z,5.07
2018-03-31T13:50:39.126Z,4.07
2018-03-31T13:55:41.198Z,5.13
2018-03-31T14:00:44.319Z,4.10
2018-03-31T14:05:46.379Z,4.40
2018-03-31T14:10:49.187Z,4.17
2018-03-31T14:15:52.170Z,3.80
2018-03-31T14:20:55.734Z,4.37
2018-03-31T14:25:58.037Z,4.70
2018-03-31T14:31:00.106Z,3.33
2018-03-31T14:36:02.172Z,4.03
2018-03-31T14:41:04.953Z,3.70
2018-03-31T14:46:07.084Z,3.90
2018-03-31T14:51:09.463Z,4.07
2018-03-31T14:56:11.635Z,4.40
2018-03-31T15:01:13.718Z,3.73
2018-03-31T15:06:16.539Z,3.37
2018-03-31T15:11:18.901Z,4.13
2018-03-31T15:16:21.721Z,3.93
2018-03-31T15:21:23.752Z,4.40
2018-03-31T15:26:26.709Z,4.83
2018-03-31T15:31:29.099Z,4.00
2018-03-31T15:36:31.126Z,4.30
2018-03-31T15:41:33.153Z,6.40
2018-03-31T15:46:35.202Z,6.10
2018-03-31T15:51:37.299Z,5.50
2018-03-31T15:56:40.387Z,6.20
2018-03-31T16:01:42.432Z,5.83
2018-03-31T16:06:44.489Z,4.77
2018-03-31T16:11:46.540Z,4.50
2018-03-31T16:16:48.584Z,5.23
2018-03-31T16:21:50.891Z,5.27
2018-03-31T16:26:53.668Z,4.97
2018-03-31T16:31:55.812Z,4.87
2018-03-31T16:36:58.124Z,4.30
2018-03-31T16:42:00.384Z,4.13
2018-03-31T16:47:03.684Z,4.13
2018-03-31T16:52:05.784Z,4.60
2018-03-31T16:57:08.603Z,4.43
2018-03-31T17:02:10.681Z,4.30
2018-03-31T17:07:12.949Z,3.67
2018-03-31T17:12:15.238Z,3.97
2018-03-31T17:17:18.853Z,3.77
2018-03-31T17:22:21.146Z,3.67
2018-03-31T17:27:23.210Z,3.93
2018-03-31T17:32:26.193Z,4.80
2018-03-31T17:37:28.244Z,4.90
2018-03-31T17:42:30.356Z,3.50
2018-03-31T17:47:32.687Z,4.53
2018-03-31T17:52:35.552Z,4.63
2018-03-31T17:57:37.664Z,3.90
2018-03-31T18:02:39.833Z,4.50
2018-03-31T18:07:42.091Z,3.70
2018-03-31T18:12:44.512Z,3.97
2018-03-31T18:17:46.680Z,3.83
2018-03-31T18:22:48.888Z,4.70
2018-03-31T18:27:51.270Z,3.50
2018-03-31T18:32:53.357Z,4.00
2018-03-31T18:37:55.467Z,4.90
2018-03-31T18:42:58.315Z,5.00
2018-03-31T18:48:00.554Z,4.47
2018-03-31T18:53:02.699Z,4.77
2018-03-31T18:58:04.765Z,5.83
2018-03-31T19:03:06.830Z,5.47
2018-03-31T19:08:08.900Z,4.97
2018-03-31T19:13:11.019Z,5.20
2018-03-31T19:18:13.113Z,5.00
2018-03-31T19:23:15.155Z,5.07
2018-03-31T19:28:17.476Z,5.47
2018-03-31T19:33:19.664Z,5.43
2018-03-31T19:38:21.857Z,5.60
2018-03-31T19:43:24.099Z,5.07
2018-03-31T19:48:26.372Z,5.00
2018-03-31T19:53:28.549Z,5.27
2018-03-31T19:58:30.673Z,5.40
2018-03-31T20:03:32.899Z,4.93
2018-03-31T20:08:35.231Z,5.63
2018-03-31T20:13:37.310Z,11.27
2018-03-31T20:18:39.473Z,8.70
2018-03-31T20:23:42.028Z,6.93
2018-03-31T20:28:44.085Z,7.73
2018-03-31T20:33:46.225Z,9.33
2018-03-31T20:38:48.496Z,11.80
2018-03-31T20:43:50.702Z,10.97
2018-03-31T20:48:53.161Z,10.63
2018-03-31T20:53:55.501Z,9.40
2018-03-31T20:58:57.874Z,9.90
2018-03-31T21:03:59.946Z,9.30
2018-03-31T21:09:02.103Z,9.70
2018-03-31T21:14:04.183Z,8.80
2018-03-31T21:19:06.518Z,8.20
2018-03-31T21:24:09.040Z,8.70
2018-03-31T21:29:11.229Z,8.60
2018-03-31T21:34:14.433Z,8.63
2018-03-31T21:39:16.652Z,7.80
2018-03-31T21:44:19.264Z,8.40
2018-03-31T21:49:21.516Z,8.33
2018-03-31T21:54:23.678Z,8.40
2018-03-31T21:59:25.730Z,7.90
2018-03-31T22:04:28.058Z,8.17
2018-03-31T22:09:30.361Z,8.50
2018-03-31T22:14:38.898Z,7.97
2018-03-31T22:19:41.089Z,34.00
2018-03-31T22:24:43.923Z,21.30
2018-03-31T22:29:46.112Z,15.87
2018-03-31T22:34:48.210Z,13.80
2018-03-31T22:39:50.270Z,13.00
2018-03-31T22:44:52.336Z,11.60
2018-03-31T22:49:54.466Z,11.90
2018-03-31T22:54:56.496Z,10.77
2018-03-31T22:59:58.554Z,10.40
2018-03-31T23:05:00.609Z,10.10
2018-03-31T23:10:02.676Z,9.63
2018-03-31T23:15:04.721Z,8.97
2018-03-31T23:20:06.760Z,9.30
2018-03-31T23:25:09.164Z,9.40
2018-03-31T23:30:11.291Z,8.60
2018-03-31T23:35:13.459Z,8.80
2018-03-31T23:40:15.684Z,8.60
2018-03-31T23:45:17.735Z,8.67
2018-03-31T23:50:20.222Z,8.10
2018-03-31T23:55:22.339Z,7.77
